sensor_id;sensor_type;location;lat;lon;timestamp;temperature;humidity
51902;DHT22;37929;53.218;6.548;2023-02-15T00:01:49;5.00;99.90
51902;DHT22;37929;53.218;6.548;2023-02-15T00:04:17;5.10;99.90
51902;DHT22;37929;53.218;6.548;2023-02-15T00:06:44;4.90;99.90
51902;DHT22;37929;53.218;6.548;2023-02-15T00:09:11;4.90;99.90
51902;DHT22;37929;53.218;6.548;2023-02-15T00:11:37;4.90;99.90
51902;DHT22;37929;53.218;6.548;2023-02-15T00:14:16;4.90;99.90
51902;DHT22;37929;53.218;6.548;2023-02-15T00:16:43;4.90;99.90
51902;DHT22;37929;53.218;6.548;2023-02-15T00:19:10;4.80;99.90
51902;DHT22;37929;53.218;6.548;2023-02-15T00:21:37;4.80;99.90
51902;DHT22;37929;53.218;6.548;2023-02-15T00:24:05;4.80;99.90
51902;DHT22;37929;53.218;6.548;2023-02-15T00:26:31;4.80;99.90
51902;DHT22;37929;53.218;6.548;2023-02-15T00:28:58;4.80;99.90
51902;DHT22;37929;53.218;6.548;2023-02-15T00:31:25;4.80;99.90
51902;DHT22;37929;53.218;6.548;2023-02-15T00:33:50;4.70;99.90
51902;DHT22;37929;53.218;6.548;2023-02-15T00:36:16;4.70;99.90
51902;DHT22;37929;53.218;6.548;2023-02-15T00:38:42;4.60;99.90
51902;DHT22;37929;53.218;6.548;2023-02-15T00:41:09;5.10;99.90
51902;DHT22;37929;53.218;6.548;2023-02-15T00:43:36;5.10;99.90
51902;DHT22;37929;53.218;6.548;2023-02-15T00:46:03;4.70;99.90
51902;DHT22;37929;53.218;6.548;2023-02-15T00:48:30;4.70;99.90
51902;DHT22;37929;53.218;6.548;2023-02-15T00:50:58;4.70;99.90
51902;DHT22;37929;53.218;6.548;2023-02-15T00:53:25;4.60;99.90
51902;DHT22;37929;53.218;6.548;2023-02-15T00:55:54;4.60;99.90
51902;DHT22;37929;53.218;6.548;2023-02-15T00:58:21;5.20;99.90
51902;DHT22;37929;53.218;6.548;2023-02-15T01:00:47;4.60;99.90
51902;DHT22;37929;53.218;6.548;2023-02-15T01:03:17;4.60;99.90
51902;DHT22;37929;53.218;6.548;2023-02-15T01:05:43;4.60;99.90
51902;DHT22;37929;53.218;6.548;2023-02-15T01:08:09;4.60;99.90
51902;DHT22;37929;53.218;6.548;2023-02-15T01:10:36;5.40;99.90
51902;DHT22;37929;53.218;6.548;2023-02-15T01:13:01;4.50;99.90
51902;DHT22;37929;53.218;6.548;2023-02-15T01:15:27;4.50;99.90
51902;DHT22;37929;53.218;6.548;2023-02-15T01:17:53;4.50;99.90
51902;DHT22;37929;53.218;6.548;2023-02-15T01:20:20;4.50;99.90
51902;DHT22;37929;53.218;6.548;2023-02-15T01:22:46;4.50;99.90
51902;DHT22;37929;53.218;6.548;2023-02-15T01:25:18;4.50;99.90
51902;DHT22;37929;53.218;6.548;2023-02-15T01:27:45;4.50;99.90
51902;DHT22;37929;53.218;6.548;2023-02-15T01:30:12;4.50;99.90
51902;DHT22;37929;53.218;6.548;2023-02-15T01:32:38;4.40;99.90
51902;DHT22;37929;53.218;6.548;2023-02-15T01:35:04;4.40;99.90
51902;DHT22;37929;53.218;6.548;2023-02-15T01:37:31;4.50;99.90
51902;DHT22;37929;53.218;6.548;2023-02-15T01:39:57;4.50;99.90
51902;DHT22;37929;53.218;6.548;2023-02-15T01:42:26;4.50;99.90
51902;DHT22;37929;53.218;6.548;2023-02-15T01:50:40;4.50;99.90
51902;DHT22;37929;53.218;6.548;2023-02-15T01:53:34;4.40;99.90
51902;DHT22;37929;53.218;6.548;2023-02-15T01:56:06;4.40;99.90
51902;DHT22;37929;53.218;6.548;2023-02-15T01:58:34;4.30;99.90
51902;DHT22;37929;53.218;6.548;2023-02-15T02:01:01;4.30;99.90
51902;DHT22;37929;53.218;6.548;2023-02-15T02:04:10;4.30;99.90
51902;DHT22;37929;53.218;6.548;2023-02-15T02:06:36;4.30;99.90
51902;DHT22;37929;53.218;6.548;2023-02-15T02:09:03;4.30;99.90
51902;DHT22;37929;53.218;6.548;2023-02-15T02:11:29;4.60;99.90
51902;DHT22;37929;53.218;6.548;2023-02-15T02:13:55;4.30;99.90
51902;DHT22;37929;53.218;6.548;2023-02-15T02:16:30;4.40;99.90
51902;DHT22;37929;53.218;6.548;2023-02-15T02:34:55;4.10;99.90
51902;DHT22;37929;53.218;6.548;2023-02-15T02:37:43;4.00;99.90
51902;DHT22;37929;53.218;6.548;2023-02-15T02:40:32;4.00;99.90
51902;DHT22;37929;53.218;6.548;2023-02-15T02:43:08;4.10;99.90
51902;DHT22;37929;53.218;6.548;2023-02-15T02:45:51;4.00;99.90
51902;DHT22;37929;53.218;6.548;2023-02-15T02:48:25;4.00;99.90
51902;DHT22;37929;53.218;6.548;2023-02-15T02:50:52;3.90;99.90
51902;DHT22;37929;53.218;6.548;2023-02-15T02:53:17;3.90;99.90
51902;DHT22;37929;53.218;6.548;2023-02-15T02:55:59;4.00;99.90
51902;DHT22;37929;53.218;6.548;2023-02-15T02:59:11;3.90;99.90
51902;DHT22;37929;53.218;6.548;2023-02-15T03:01:45;4.00;99.90
51902;DHT22;37929;53.218;6.548;2023-02-15T03:04:33;4.00;99.90
51902;DHT22;37929;53.218;6.548;2023-02-15T03:07:03;4.00;99.90
51902;DHT22;37929;53.218;6.548;2023-02-15T03:09:34;4.00;99.90
51902;DHT22;37929;53.218;6.548;2023-02-15T03:12:12;4.00;99.90
51902;DHT22;37929;53.218;6.548;2023-02-15T03:14:40;4.00;99.90
51902;DHT22;37929;53.218;6.548;2023-02-15T03:17:08;4.00;99.90
51902;DHT22;37929;53.218;6.548;2023-02-15T03:19:37;4.00;99.90
51902;DHT22;37929;53.218;6.548;2023-02-15T03:22:07;4.00;99.90
51902;DHT22;37929;53.218;6.548;2023-02-15T03:24:42;4.10;99.90
51902;DHT22;37929;53.218;6.548;2023-02-15T03:27:14;3.90;99.90
51902;DHT22;37929;53.218;6.548;2023-02-15T03:29:47;3.90;99.90
51902;DHT22;37929;53.218;6.548;2023-02-15T03:32:14;3.90;99.90
51902;DHT22;37929;53.218;6.548;2023-02-15T03:34:41;3.80;99.90
51902;DHT22;37929;53.218;6.548;2023-02-15T03:37:13;3.80;99.90
51902;DHT22;37929;53.218;6.548;2023-02-15T03:43:12;3.80;99.90
51902;DHT22;37929;53.218;6.548;2023-02-15T03:45:44;3.80;99.90
51902;DHT22;37929;53.218;6.548;2023-02-15T03:48:24;3.80;99.90
51902;DHT22;37929;53.218;6.548;2023-02-15T03:50:53;3.90;99.90
51902;DHT22;37929;53.218;6.548;2023-02-15T03:53:46;3.80;99.90
51902;DHT22;37929;53.218;6.548;2023-02-15T03:56:12;4.00;99.90
51902;DHT22;37929;53.218;6.548;2023-02-15T03:58:38;3.80;99.90
51902;DHT22;37929;53.218;6.548;2023-02-15T04:01:39;3.80;99.90
51902;DHT22;37929;53.218;6.548;2023-02-15T04:04:28;3.80;99.90
51902;DHT22;37929;53.218;6.548;2023-02-15T04:06:56;3.80;99.90
51902;DHT22;37929;53.218;6.548;2023-02-15T04:09:22;3.90;99.90
51902;DHT22;37929;53.218;6.548;2023-02-15T04:12:06;3.70;99.90
51902;DHT22;37929;53.218;6.548;2023-02-15T04:14:32;3.70;99.90
51902;DHT22;37929;53.218;6.548;2023-02-15T04:17:17;3.70;99.90
51902;DHT22;37929;53.218;6.548;2023-02-15T04:19:42;3.70;99.90
51902;DHT22;37929;53.218;6.548;2023-02-15T04:22:26;3.70;99.90
51902;DHT22;37929;53.218;6.548;2023-02-15T04:25:11;3.70;99.90
51902;DHT22;37929;53.218;6.548;2023-02-15T04:27:41;3.60;99.90
51902;DHT22;37929;53.218;6.548;2023-02-15T04:30:08;3.60;99.90
51902;DHT22;37929;53.218;6.548;2023-02-15T04:32:35;3.60;99.90
51902;DHT22;37929;53.218;6.548;2023-02-15T04:35:01;3.60;99.90
51902;DHT22;37929;53.218;6.548;2023-02-15T04:37:28;3.50;99.90
51902;DHT22;37929;53.218;6.548;2023-02-15T04:39:53;3.50;99.90
51902;DHT22;37929;53.218;6.548;2023-02-15T04:42:19;3.50;99.90
51902;DHT22;37929;53.218;6.548;2023-02-15T04:44:45;3.50;99.90
51902;DHT22;37929;53.218;6.548;2023-02-15T04:47:11;2.80;99.90
51902;DHT22;37929;53.218;6.548;2023-02-15T04:49:36;3.50;99.90
51902;DHT22;37929;53.218;6.548;2023-02-15T04:52:02;3.60;99.90
51902;DHT22;37929;53.218;6.548;2023-02-15T04:54:28;3.60;99.90
51902;DHT22;37929;53.218;6.548;2023-02-15T04:56:54;3.60;99.90
51902;DHT22;37929;53.218;6.548;2023-02-15T04:59:20;3.60;99.90
51902;DHT22;37929;53.218;6.548;2023-02-15T05:01:45;3.60;99.90
51902;DHT22;37929;53.218;6.548;2023-02-15T05:04:11;3.60;99.90
51902;DHT22;37929;53.218;6.548;2023-02-15T05:06:37;3.60;99.90
51902;DHT22;37929;53.218;6.548;2023-02-15T05:09:03;3.60;99.90
51902;DHT22;37929;53.218;6.548;2023-02-15T05:11:28;3.50;99.90
51902;DHT22;37929;53.218;6.548;2023-02-15T05:13:54;3.50;99.90
51902;DHT22;37929;53.218;6.548;2023-02-15T05:16:20;3.50;99.90
51902;DHT22;37929;53.218;6.548;2023-02-15T05:18:46;3.50;99.90
51902;DHT22;37929;53.218;6.548;2023-02-15T05:21:12;3.50;99.90
51902;DHT22;37929;53.218;6.548;2023-02-15T05:23:39;3.50;99.90
51902;DHT22;37929;53.218;6.548;2023-02-15T05:26:05;3.40;99.90
51902;DHT22;37929;53.218;6.548;2023-02-15T05:28:49;3.70;99.90
51902;DHT22;37929;53.218;6.548;2023-02-15T05:31:17;3.40;99.90
51902;DHT22;37929;53.218;6.548;2023-02-15T05:33:43;3.80;99.90
51902;DHT22;37929;53.218;6.548;2023-02-15T05:36:10;3.60;99.90
51902;DHT22;37929;53.218;6.548;2023-02-15T05:38:36;3.40;99.90
51902;DHT22;37929;53.218;6.548;2023-02-15T05:41:06;3.40;99.90
51902;DHT22;37929;53.218;6.548;2023-02-15T05:43:32;3.40;99.90
51902;DHT22;37929;53.218;6.548;2023-02-15T05:45:58;3.40;99.90
51902;DHT22;37929;53.218;6.548;2023-02-15T05:48:25;3.40;99.90
51902;DHT22;37929;53.218;6.548;2023-02-15T05:53:25;3.40;99.90
51902;DHT22;37929;53.218;6.548;2023-02-15T05:55:51;3.40;99.90
51902;DHT22;37929;53.218;6.548;2023-02-15T05:58:17;3.40;99.90
51902;DHT22;37929;53.218;6.548;2023-02-15T06:00:43;3.40;99.90
51902;DHT22;37929;53.218;6.548;2023-02-15T06:03:09;3.40;99.90
51902;DHT22;37929;53.218;6.548;2023-02-15T06:05:34;3.40;99.90
51902;DHT22;37929;53.218;6.548;2023-02-15T06:08:00;3.90;99.90
51902;DHT22;37929;53.218;6.548;2023-02-15T06:10:26;3.40;99.90
51902;DHT22;37929;53.218;6.548;2023-02-15T06:12:52;3.40;99.90
51902;DHT22;37929;53.218;6.548;2023-02-15T06:15:17;3.40;99.90
51902;DHT22;37929;53.218;6.548;2023-02-15T06:17:43;3.30;99.90
51902;DHT22;37929;53.218;6.548;2023-02-15T06:20:10;3.30;99.90
51902;DHT22;37929;53.218;6.548;2023-02-15T06:22:35;3.30;99.90
51902;DHT22;37929;53.218;6.548;2023-02-15T06:25:01;3.30;99.90
51902;DHT22;37929;53.218;6.548;2023-02-15T06:27:27;3.30;99.90
51902;DHT22;37929;53.218;6.548;2023-02-15T06:29:53;3.30;99.90
51902;DHT22;37929;53.218;6.548;2023-02-15T06:32:18;3.30;99.90
51902;DHT22;37929;53.218;6.548;2023-02-15T06:34:44;4.00;99.90
51902;DHT22;37929;53.218;6.548;2023-02-15T06:37:12;3.30;99.90
51902;DHT22;37929;53.218;6.548;2023-02-15T06:39:38;3.30;99.90
51902;DHT22;37929;53.218;6.548;2023-02-15T06:42:03;3.30;99.90
51902;DHT22;37929;53.218;6.548;2023-02-15T06:44:29;3.20;99.90
51902;DHT22;37929;53.218;6.548;2023-02-15T06:46:55;3.30;99.90
51902;DHT22;37929;53.218;6.548;2023-02-15T06:49:21;3.20;99.90
51902;DHT22;37929;53.218;6.548;2023-02-15T06:51:46;3.50;99.90
51902;DHT22;37929;53.218;6.548;2023-02-15T06:54:12;3.90;99.90
51902;DHT22;37929;53.218;6.548;2023-02-15T06:56:38;3.20;99.90
51902;DHT22;37929;53.218;6.548;2023-02-15T06:59:04;3.20;99.90
51902;DHT22;37929;53.218;6.548;2023-02-15T07:01:30;3.80;99.90
51902;DHT22;37929;53.218;6.548;2023-02-15T07:03:56;3.10;99.90
51902;DHT22;37929;53.218;6.548;2023-02-15T07:06:21;3.60;99.90
51902;DHT22;37929;53.218;6.548;2023-02-15T07:08:47;3.10;99.90
51902;DHT22;37929;53.218;6.548;2023-02-15T07:11:13;3.10;99.90
51902;DHT22;37929;53.218;6.548;2023-02-15T07:13:57;3.10;99.90
51902;DHT22;37929;53.218;6.548;2023-02-15T07:16:23;3.10;99.90
51902;DHT22;37929;53.218;6.548;2023-02-15T07:18:49;3.70;99.90
51902;DHT22;37929;53.218;6.548;2023-02-15T07:21:15;3.10;99.90
51902;DHT22;37929;53.218;6.548;2023-02-15T07:23:43;3.10;99.90
51902;DHT22;37929;53.218;6.548;2023-02-15T07:26:09;2.70;99.90
51902;DHT22;37929;53.218;6.548;2023-02-15T07:28:35;3.10;99.90
51902;DHT22;37929;53.218;6.548;2023-02-15T07:31:02;3.10;99.90
51902;DHT22;37929;53.218;6.548;2023-02-15T07:33:30;3.20;99.90
51902;DHT22;37929;53.218;6.548;2023-02-15T07:35:58;3.10;99.90
51902;DHT22;37929;53.218;6.548;2023-02-15T07:38:26;3.10;99.90
51902;DHT22;37929;53.218;6.548;2023-02-15T07:40:57;3.10;99.90
51902;DHT22;37929;53.218;6.548;2023-02-15T07:43:22;3.10;99.90
51902;DHT22;37929;53.218;6.548;2023-02-15T07:45:51;3.10;99.90
51902;DHT22;37929;53.218;6.548;2023-02-15T07:48:17;3.20;99.90
51902;DHT22;37929;53.218;6.548;2023-02-15T07:50:43;3.20;99.90
51902;DHT22;37929;53.218;6.548;2023-02-15T07:53:09;3.10;99.90
51902;DHT22;37929;53.218;6.548;2023-02-15T07:55:35;3.20;99.90
51902;DHT22;37929;53.218;6.548;2023-02-15T07:58:00;3.30;99.90
51902;DHT22;37929;53.218;6.548;2023-02-15T08:00:26;3.30;99.90
51902;DHT22;37929;53.218;6.548;2023-02-15T08:02:54;3.30;99.90
51902;DHT22;37929;53.218;6.548;2023-02-15T08:05:40;3.40;99.90
51902;DHT22;37929;53.218;6.548;2023-02-15T08:08:07;3.40;99.90
51902;DHT22;37929;53.218;6.548;2023-02-15T08:10:33;3.50;99.90
51902;DHT22;37929;53.218;6.548;2023-02-15T08:13:17;3.50;99.90
51902;DHT22;37929;53.218;6.548;2023-02-15T08:15:52;3.60;99.90
51902;DHT22;37929;53.218;6.548;2023-02-15T08:18:18;3.60;99.90
51902;DHT22;37929;53.218;6.548;2023-02-15T08:20:49;3.70;99.90
51902;DHT22;37929;53.218;6.548;2023-02-15T08:23:15;3.70;99.90
51902;DHT22;37929;53.218;6.548;2023-02-15T08:25:41;3.70;99.90
51902;DHT22;37929;53.218;6.548;2023-02-15T08:28:06;3.80;99.90
51902;DHT22;37929;53.218;6.548;2023-02-15T08:30:32;3.80;99.90
51902;DHT22;37929;53.218;6.548;2023-02-15T08:32:58;4.10;99.90
51902;DHT22;37929;53.218;6.548;2023-02-15T08:35:24;4.30;99.90
51902;DHT22;37929;53.218;6.548;2023-02-15T08:37:51;4.60;99.90
51902;DHT22;37929;53.218;6.548;2023-02-15T08:40:17;4.60;99.90
51902;DHT22;37929;53.218;6.548;2023-02-15T08:42:42;4.50;99.90
51902;DHT22;37929;53.218;6.548;2023-02-15T08:45:08;4.70;99.90
51902;DHT22;37929;53.218;6.548;2023-02-15T08:47:34;4.80;99.90
51902;DHT22;37929;53.218;6.548;2023-02-15T08:50:00;4.80;99.90
51902;DHT22;37929;53.218;6.548;2023-02-15T08:52:26;4.80;99.90
51902;DHT22;37929;53.218;6.548;2023-02-15T08:54:51;5.30;99.90
51902;DHT22;37929;53.218;6.548;2023-02-15T08:57:17;4.70;99.90
51902;DHT22;37929;53.218;6.548;2023-02-15T08:59:43;4.70;99.90
51902;DHT22;37929;53.218;6.548;2023-02-15T09:02:10;4.80;99.90
51902;DHT22;37929;53.218;6.548;2023-02-15T09:04:36;4.90;99.90
51902;DHT22;37929;53.218;6.548;2023-02-15T09:07:02;5.20;99.90
51902;DHT22;37929;53.218;6.548;2023-02-15T09:09:29;5.60;99.90
51902;DHT22;37929;53.218;6.548;2023-02-15T09:11:56;6.00;99.90
51902;DHT22;37929;53.218;6.548;2023-02-15T09:14:22;6.30;99.90
51902;DHT22;37929;53.218;6.548;2023-02-15T09:16:51;6.70;99.90
51902;DHT22;37929;53.218;6.548;2023-02-15T09:19:19;6.70;99.90
51902;DHT22;37929;53.218;6.548;2023-02-15T09:21:45;6.80;99.90
51902;DHT22;37929;53.218;6.548;2023-02-15T09:24:13;6.70;99.90
51902;DHT22;37929;53.218;6.548;2023-02-15T09:26:42;6.70;99.90
51902;DHT22;37929;53.218;6.548;2023-02-15T09:29:11;6.70;99.90
51902;DHT22;37929;53.218;6.548;2023-02-15T09:31:40;6.80;99.90
51902;DHT22;37929;53.218;6.548;2023-02-15T09:34:10;6.70;99.90
51902;DHT22;37929;53.218;6.548;2023-02-15T09:36:37;6.80;99.90
51902;DHT22;37929;53.218;6.548;2023-02-15T09:41:57;7.00;99.90
51902;DHT22;37929;53.218;6.548;2023-02-15T09:50:32;7.10;99.90
51902;DHT22;37929;53.218;6.548;2023-02-15T09:53:04;7.20;99.90
51902;DHT22;37929;53.218;6.548;2023-02-15T09:56:19;7.40;99.90
51902;DHT22;37929;53.218;6.548;2023-02-15T10:01:17;7.40;99.90
51902;DHT22;37929;53.218;6.548;2023-02-15T10:06:38;7.60;99.90
51902;DHT22;37929;53.218;6.548;2023-02-15T10:09:24;7.50;99.90
51902;DHT22;37929;53.218;6.548;2023-02-15T10:22:42;7.40;99.90
51902;DHT22;37929;53.218;6.548;2023-02-15T10:25:46;7.40;99.90
51902;DHT22;37929;53.218;6.548;2023-02-15T10:28:18;7.40;99.90
51902;DHT22;37929;53.218;6.548;2023-02-15T10:30:48;7.40;99.90
51902;DHT22;37929;53.218;6.548;2023-02-15T10:33:30;7.40;99.90
51902;DHT22;37929;53.218;6.548;2023-02-15T10:47:30;7.90;99.90
51902;DHT22;37929;53.218;6.548;2023-02-15T10:50:54;7.90;99.90
51902;DHT22;37929;53.218;6.548;2023-02-15T10:53:15;7.90;99.90
51902;DHT22;37929;53.218;6.548;2023-02-15T10:58:47;7.90;99.90
51902;DHT22;37929;53.218;6.548;2023-02-15T11:06:54;8.00;99.90
51902;DHT22;37929;53.218;6.548;2023-02-15T11:09:25;8.10;99.90
51902;DHT22;37929;53.218;6.548;2023-02-15T11:11:54;8.20;99.90
51902;DHT22;37929;53.218;6.548;2023-02-15T11:14:37;8.30;99.90
51902;DHT22;37929;53.218;6.548;2023-02-15T11:17:09;8.30;99.90
51902;DHT22;37929;53.218;6.548;2023-02-15T11:19:42;8.40;99.90
51902;DHT22;37929;53.218;6.548;2023-02-15T11:22:13;8.50;99.90
51902;DHT22;37929;53.218;6.548;2023-02-15T11:24:44;8.50;99.90
51902;DHT22;37929;53.218;6.548;2023-02-15T11:27:23;8.60;99.90
51902;DHT22;37929;53.218;6.548;2023-02-15T11:30:11;8.70;99.90
51902;DHT22;37929;53.218;6.548;2023-02-15T11:32:44;8.80;99.90
51902;DHT22;37929;53.218;6.548;2023-02-15T11:35:41;8.90;99.90
51902;DHT22;37929;53.218;6.548;2023-02-15T11:38:18;8.90;99.90
51902;DHT22;37929;53.218;6.548;2023-02-15T11:41:06;8.90;99.90
51902;DHT22;37929;53.218;6.548;2023-02-15T11:46:10;9.10;99.90
51902;DHT22;37929;53.218;6.548;2023-02-15T11:48:36;9.20;99.90
51902;DHT22;37929;53.218;6.548;2023-02-15T11:51:02;9.30;99.90
51902;DHT22;37929;53.218;6.548;2023-02-15T11:53:33;9.50;99.90
51902;DHT22;37929;53.218;6.548;2023-02-15T11:56:01;9.60;99.90
51902;DHT22;37929;53.218;6.548;2023-02-15T11:58:52;9.60;99.90
51902;DHT22;37929;53.218;6.548;2023-02-15T12:01:41;9.90;99.90
51902;DHT22;37929;53.218;6.548;2023-02-15T12:06:41;9.90;99.90
51902;DHT22;37929;53.218;6.548;2023-02-15T12:11:49;10.30;99.90
51902;DHT22;37929;53.218;6.548;2023-02-15T12:14:15;10.30;99.90
51902;DHT22;37929;53.218;6.548;2023-02-15T12:16:55;10.40;99.90
51902;DHT22;37929;53.218;6.548;2023-02-15T12:21:52;10.50;99.90
51902;DHT22;37929;53.218;6.548;2023-02-15T12:24:30;10.50;99.90
51902;DHT22;37929;53.218;6.548;2023-02-15T12:29:29;10.60;99.90
51902;DHT22;37929;53.218;6.548;2023-02-15T12:31:57;10.60;99.90
51902;DHT22;37929;53.218;6.548;2023-02-15T12:34:29;10.60;99.90
51902;DHT22;37929;53.218;6.548;2023-02-15T12:36:57;10.60;99.90
51902;DHT22;37929;53.218;6.548;2023-02-15T12:39:30;10.60;99.90
51902;DHT22;37929;53.218;6.548;2023-02-15T12:42:16;10.60;99.90
51902;DHT22;37929;53.218;6.548;2023-02-15T12:45:01;10.70;99.90
51902;DHT22;37929;53.218;6.548;2023-02-15T12:47:29;10.80;99.90
51902;DHT22;37929;53.218;6.548;2023-02-15T12:50:10;10.90;99.90
51902;DHT22;37929;53.218;6.548;2023-02-15T12:52:44;10.90;99.90
51902;DHT22;37929;53.218;6.548;2023-02-15T12:55:30;11.00;99.90
51902;DHT22;37929;53.218;6.548;2023-02-15T12:58:29;11.00;99.90
51902;DHT22;37929;53.218;6.548;2023-02-15T13:03:30;11.20;99.90
51902;DHT22;37929;53.218;6.548;2023-02-15T13:05:57;11.30;99.90
51902;DHT22;37929;53.218;6.548;2023-02-15T13:08:31;11.30;99.90
51902;DHT22;37929;53.218;6.548;2023-02-15T13:11:04;11.30;99.90
51902;DHT22;37929;53.218;6.548;2023-02-15T13:13:34;11.20;99.90
51902;DHT22;37929;53.218;6.548;2023-02-15T13:16:12;11.20;99.90
51902;DHT22;37929;53.218;6.548;2023-02-15T13:18:45;11.20;99.90
51902;DHT22;37929;53.218;6.548;2023-02-15T13:21:21;11.10;99.90
51902;DHT22;37929;53.218;6.548;2023-02-15T13:23:58;11.20;99.90
51902;DHT22;37929;53.218;6.548;2023-02-15T13:26:28;11.20;99.90
51902;DHT22;37929;53.218;6.548;2023-02-15T13:29:08;11.20;99.90
51902;DHT22;37929;53.218;6.548;2023-02-15T13:31:39;11.20;99.90
51902;DHT22;37929;53.218;6.548;2023-02-15T13:34:17;11.20;99.90
51902;DHT22;37929;53.218;6.548;2023-02-15T13:36:57;11.30;99.90
51902;DHT22;37929;53.218;6.548;2023-02-15T13:39:42;11.30;99.90
51902;DHT22;37929;53.218;6.548;2023-02-15T13:42:35;11.30;99.90
51902;DHT22;37929;53.218;6.548;2023-02-15T13:48:11;11.20;99.90
51902;DHT22;37929;53.218;6.548;2023-02-15T13:56:04;11.20;99.90
51902;DHT22;37929;53.218;6.548;2023-02-15T14:01:56;11.10;99.90
51902;DHT22;37929;53.218;6.548;2023-02-15T14:07:30;11.00;99.90
51902;DHT22;37929;53.218;6.548;2023-02-15T14:13:09;11.00;99.90
51902;DHT22;37929;53.218;6.548;2023-02-15T14:26:52;11.00;99.90
51902;DHT22;37929;53.218;6.548;2023-02-15T14:31:57;11.00;99.90
51902;DHT22;37929;53.218;6.548;2023-02-15T14:34:28;11.00;99.90
51902;DHT22;37929;53.218;6.548;2023-02-15T14:36:56;11.00;99.90
51902;DHT22;37929;53.218;6.548;2023-02-15T14:39:54;11.00;99.90
51902;DHT22;37929;53.218;6.548;2023-02-15T14:43:05;11.00;99.90
51902;DHT22;37929;53.218;6.548;2023-02-15T14:48:53;11.00;99.90
51902;DHT22;37929;53.218;6.548;2023-02-15T14:54:10;10.90;99.90
51902;DHT22;37929;53.218;6.548;2023-02-15T14:56:36;10.80;99.90
51902;DHT22;37929;53.218;6.548;2023-02-15T14:59:19;10.90;99.90
51902;DHT22;37929;53.218;6.548;2023-02-15T15:02:03;10.80;99.90
51902;DHT22;37929;53.218;6.548;2023-02-15T15:04:33;10.80;99.90
51902;DHT22;37929;53.218;6.548;2023-02-15T15:09:40;10.90;99.90
51902;DHT22;37929;53.218;6.548;2023-02-15T15:14:49;10.80;99.90
51902;DHT22;37929;53.218;6.548;2023-02-15T15:20:02;10.80;99.90
51902;DHT22;37929;53.218;6.548;2023-02-15T15:22:30;10.70;99.90
51902;DHT22;37929;53.218;6.548;2023-02-15T15:25:01;10.70;99.90
51902;DHT22;37929;53.218;6.548;2023-02-15T15:30:26;10.60;99.90
51902;DHT22;37929;53.218;6.548;2023-02-15T15:37:57;10.50;99.90
51902;DHT22;37929;53.218;6.548;2023-02-15T15:48:37;10.30;99.90
51902;DHT22;37929;53.218;6.548;2023-02-15T15:51:14;10.20;99.90
51902;DHT22;37929;53.218;6.548;2023-02-15T15:53:45;10.20;99.90
51902;DHT22;37929;53.218;6.548;2023-02-15T15:56:19;10.10;99.90
51902;DHT22;37929;53.218;6.548;2023-02-15T15:58:53;10.10;99.90
51902;DHT22;37929;53.218;6.548;2023-02-15T16:01:29;10.00;99.90
51902;DHT22;37929;53.218;6.548;2023-02-15T16:03:57;10.00;99.90
51902;DHT22;37929;53.218;6.548;2023-02-15T16:06:41;10.00;99.90
51902;DHT22;37929;53.218;6.548;2023-02-15T16:11:44;9.90;99.90
51902;DHT22;37929;53.218;6.548;2023-02-15T16:14:17;9.80;99.90
51902;DHT22;37929;53.218;6.548;2023-02-15T16:16:51;9.80;99.90
51902;DHT22;37929;53.218;6.548;2023-02-15T16:19:28;9.70;99.90
51902;DHT22;37929;53.218;6.548;2023-02-15T16:21:57;9.70;99.90
51902;DHT22;37929;53.218;6.548;2023-02-15T16:29:56;9.60;99.90
51902;DHT22;37929;53.218;6.548;2023-02-15T16:32:27;9.50;99.90
51902;DHT22;37929;53.218;6.548;2023-02-15T16:34:59;9.50;99.90
51902;DHT22;37929;53.218;6.548;2023-02-15T16:37:28;9.40;99.90
51902;DHT22;37929;53.218;6.548;2023-02-15T16:39:56;9.40;99.90
51902;DHT22;37929;53.218;6.548;2023-02-15T16:42:22;9.40;99.90
51902;DHT22;37929;53.218;6.548;2023-02-15T16:45:05;9.30;99.90
51902;DHT22;37929;53.218;6.548;2023-02-15T16:47:38;9.30;99.90
51902;DHT22;37929;53.218;6.548;2023-02-15T16:50:06;9.30;99.90
51902;DHT22;37929;53.218;6.548;2023-02-15T16:52:43;9.20;99.90
51902;DHT22;37929;53.218;6.548;2023-02-15T16:55:24;9.20;99.90
51902;DHT22;37929;53.218;6.548;2023-02-15T16:57:53;9.20;99.90
51902;DHT22;37929;53.218;6.548;2023-02-15T17:00:24;9.10;99.90
51902;DHT22;37929;53.218;6.548;2023-02-15T17:02:59;9.10;99.90
51902;DHT22;37929;53.218;6.548;2023-02-15T17:05:31;9.00;99.90
51902;DHT22;37929;53.218;6.548;2023-02-15T17:08:05;9.00;99.90
51902;DHT22;37929;53.218;6.548;2023-02-15T17:10:37;9.00;99.90
51902;DHT22;37929;53.218;6.548;2023-02-15T17:13:16;8.90;99.90
51902;DHT22;37929;53.218;6.548;2023-02-15T17:16:07;8.90;99.90
51902;DHT22;37929;53.218;6.548;2023-02-15T17:21:12;8.90;99.90
51902;DHT22;37929;53.218;6.548;2023-02-15T17:23:45;8.80;99.90
51902;DHT22;37929;53.218;6.548;2023-02-15T17:26:24;8.80;99.90
51902;DHT22;37929;53.218;6.548;2023-02-15T17:29:00;8.70;99.90
51902;DHT22;37929;53.218;6.548;2023-02-15T17:31:31;8.70;99.90
51902;DHT22;37929;53.218;6.548;2023-02-15T17:33:59;8.70;99.90
51902;DHT22;37929;53.218;6.548;2023-02-15T17:36:27;8.60;99.90
51902;DHT22;37929;53.218;6.548;2023-02-15T17:41:31;8.60;99.90
51902;DHT22;37929;53.218;6.548;2023-02-15T17:43:57;8.60;99.90
51902;DHT22;37929;53.218;6.548;2023-02-15T17:46:24;8.50;99.90
51902;DHT22;37929;53.218;6.548;2023-02-15T17:48:52;8.50;99.90
51902;DHT22;37929;53.218;6.548;2023-02-15T17:51:20;8.50;99.90
51902;DHT22;37929;53.218;6.548;2023-02-15T17:53:47;8.50;99.90
51902;DHT22;37929;53.218;6.548;2023-02-15T17:56:36;8.40;99.90
51902;DHT22;37929;53.218;6.548;2023-02-15T17:59:03;8.40;99.90
51902;DHT22;37929;53.218;6.548;2023-02-15T18:01:33;8.30;99.90
51902;DHT22;37929;53.218;6.548;2023-02-15T18:04:19;8.30;99.90
51902;DHT22;37929;53.218;6.548;2023-02-15T18:07:04;8.30;99.90
51902;DHT22;37929;53.218;6.548;2023-02-15T18:09:48;8.30;99.90
51902;DHT22;37929;53.218;6.548;2023-02-15T18:12:34;8.20;99.90
51902;DHT22;37929;53.218;6.548;2023-02-15T18:15:05;8.20;99.90
51902;DHT22;37929;53.218;6.548;2023-02-15T18:17:39;8.20;99.90
51902;DHT22;37929;53.218;6.548;2023-02-15T18:20:25;8.10;99.90
51902;DHT22;37929;53.218;6.548;2023-02-15T18:22:53;8.10;99.90
51902;DHT22;37929;53.218;6.548;2023-02-15T18:25:21;8.10;99.90
51902;DHT22;37929;53.218;6.548;2023-02-15T18:27:48;8.00;99.90
51902;DHT22;37929;53.218;6.548;2023-02-15T18:30:19;8.00;99.90
51902;DHT22;37929;53.218;6.548;2023-02-15T18:32:48;8.00;99.90
51902;DHT22;37929;53.218;6.548;2023-02-15T18:35:20;8.00;99.90
51902;DHT22;37929;53.218;6.548;2023-02-15T18:37:48;8.10;99.90
51902;DHT22;37929;53.218;6.548;2023-02-15T18:40:15;7.90;99.90
51902;DHT22;37929;53.218;6.548;2023-02-15T18:42:42;7.90;99.90
51902;DHT22;37929;53.218;6.548;2023-02-15T18:45:19;7.90;99.90
51902;DHT22;37929;53.218;6.548;2023-02-15T18:47:47;7.80;99.90
51902;DHT22;37929;53.218;6.548;2023-02-15T18:50:14;7.80;99.90
51902;DHT22;37929;53.218;6.548;2023-02-15T18:52:42;7.80;99.90